Terminal Aerodrome Forecast
Issued by NWS

Home | Current Version | Previous Version | Graphics & Text | Print | Product List | Glossary On
Versions: 1 2 3 4 5 6 7 8 9 10 11 12 13 14 15 16 17
000
FTUS45 KGGW 012337
TAFGDV
TAF
KGDV 012337Z 0200/0224 VRB03KT P6SM VCSH BKN045
     FM020200 VRB03KT 1SM BR OVC025
     FM020400 00000KT P6SM VCSH OVC025
     FM021100 VRB03KT 4SM BR OVC015
     FM021800 27009KT P6SM BKN050=

USA.gov is the U.S. government's official web portal to all federal, state and local government web resources and services.